Time;durP1;ratioP1;P1;durP2;ratioP2;P2;SDS_P1;SDS_P2;PMS_P1;PMS_P2;Temp;Humidity;BMP_temperature;BMP_pressure;BME280_temperature;BME280_humidity;BME280_pressure;Samples;Min_cycle;Max_cycle;Signal;HPM_P1;HPM_P2
2021/03/13 00:00:09;;;;;;;5.20;1.20;;;7.30;99.90;;;;;;5009345;28;20033;-78
2021/03/13 00:02:35;;;;;;;2.38;1.10;;;;;;;;;;5026156;28;20045;-76
2021/03/13 00:05:01;;;;;;;4.70;0.85;;;;;;;;;;5031163;28;20120;-78
2021/03/13 00:07:27;;;;;;;4.60;1.50;;;;;;;;;;5013165;28;20063;-78
2021/03/13 00:09:53;;;;;;;3.97;1.08;;;;;;;;;;5024637;28;20033;-78
2021/03/13 00:12:19;;;;;;;2.33;0.90;;;;;;;;;;5032519;28;20038;-77
2021/03/13 00:14:46;;;;;;;6.90;1.27;;;;;;;;;;5027561;28;20052;-77
2021/03/13 00:17:12;;;;;;;2.97;0.80;;;;;;;;;;5028759;28;20497;-79
2021/03/13 00:19:38;;;;;;;3.70;1.20;;;;;;;;;;5028187;28;20103;-79
2021/03/13 00:22:04;;;;;;;4.65;0.90;;;;;;;;;;5034737;28;20029;-79
2021/03/13 00:24:30;;;;;;;2.97;0.90;;;7.10;99.90;;;;;;5036883;28;20041;-80
2021/03/13 00:26:56;;;;;;;5.05;1.30;;;7.00;99.90;;;;;;5027917;28;20042;-79
2021/03/13 00:29:22;;;;;;;2.08;1.15;;;;;;;;;;5029557;28;20084;-76
2021/03/13 00:31:53;;;;;;;3.05;1.05;;;;;;;;;;5051590;28;20045;-76
2021/03/13 00:34:19;;;;;;;2.58;1.15;;;;;;;;;;5024672;28;20391;-76
2021/03/13 00:36:45;;;;;;;4.97;1.30;;;;;;;;;;5026613;28;20467;-78
2021/03/13 00:39:11;;;;;;;5.07;1.30;;;;;;;;;;5025122;28;20048;-78
2021/03/13 00:41:37;;;;;;;4.57;1.98;;;;;;;;;;5030526;28;20059;-78
2021/03/13 00:44:04;;;;;;;3.50;1.58;;;;;;;;;;5029469;28;20120;-80
2021/03/13 00:46:30;;;;;;;7.65;1.85;;;;;;;;;;5029001;28;20055;-77
2021/03/13 00:48:56;;;;;;;3.55;1.40;;;;;;;;;;5030319;28;20157;-76
2021/03/13 00:51:22;;;;;;;4.55;1.45;;;;;;;;;;5031032;28;20052;-78
2021/03/13 00:53:48;;;;;;;4.78;1.20;;;;;;;;;;5029960;28;20487;-79
2021/03/13 00:56:14;;;;;;;5.50;1.50;;;;;;;;;;5035688;28;20040;-77
2021/03/13 00:58:40;;;;;;;3.80;1.27;;;7.30;99.90;;;;;;5032307;28;20041;-76
2021/03/13 01:01:06;;;;;;;2.92;1.20;;;;;;;;;;5013794;28;20050;-77
2021/03/13 01:03:32;;;;;;;3.95;1.17;;;;;;;;;;5015299;28;20098;-79
2021/03/13 01:05:57;;;;;;;1.90;1.00;;;;;;;;;;5034834;28;20041;-79
2021/03/13 01:08:23;;;;;;;2.97;1.00;;;;;;;;;;5027746;28;20050;-80
2021/03/13 01:10:50;;;;;;;1.95;0.90;;;;;;;;;;5051317;28;20034;-80
2021/03/13 01:13:17;;;;;;;1.98;0.60;;;6.90;99.90;;;;;;5040658;28;20040;-76
2021/03/13 01:15:44;;;;;;;2.25;0.70;;;;;;;;;;5034239;28;20037;-79
2021/03/13 01:18:10;;;;;;;1.52;0.80;;;;;;;;;;5031891;28;20041;-77
2021/03/13 01:20:36;;;;;;;2.00;0.80;;;;;;;;;;5035595;28;20029;-78
2021/03/13 01:23:02;;;;;;;2.47;1.05;;;;;;;;;;5035307;28;20136;-77
2021/03/13 01:25:28;;;;;;;1.83;0.63;;;7.10;99.90;;;;;;5018601;28;20037;-81
2021/03/13 01:27:54;;;;;;;3.05;0.90;;;;;;;;;;5027274;28;20053;-78
2021/03/13 01:30:21;;;;;;;0.80;0.55;;;7.00;99.90;;;;;;5028651;28;20049;-76
2021/03/13 01:32:51;;;;;;;2.25;0.88;;;7.00;99.90;;;;;;5017148;28;20104;-81
2021/03/13 01:35:18;;;;;;;3.30;0.90;;;7.10;99.90;;;;;;5017194;28;20049;-79
2021/03/13 01:37:44;;;;;;;2.67;0.98;;;;;;;;;;5026324;28;20504;-79
2021/03/13 01:40:15;;;;;;;2.92;0.85;;;7.10;99.90;;;;;;5028181;28;20042;-77
2021/03/13 01:42:41;;;;;;;3.15;0.95;;;7.10;99.90;;;;;;5026099;28;20049;-79
2021/03/13 01:45:08;;;;;;;3.38;1.08;;;7.00;99.90;;;;;;5028032;28;20037;-80
2021/03/13 01:47:37;;;;;;;3.03;0.93;;;;;;;;;;5024574;28;20491;-79
2021/03/13 01:50:06;;;;;;;3.25;0.90;;;7.10;99.90;;;;;;5025598;28;20367;-77
2021/03/13 01:52:33;;;;;;;5.20;1.13;;;7.10;99.90;;;;;;5025186;28;20044;-79
2021/03/13 01:54:59;;;;;;;3.00;1.17;;;;;;;;;;5028499;28;20083;-79
2021/03/13 01:57:25;;;;;;;3.50;1.02;;;;;;;;;;5035537;28;20053;-79
2021/03/13 01:59:51;;;;;;;4.40;1.02;;;;;;;;;;5026440;28;20036;-78
2021/03/13 02:02:18;;;;;;;5.60;1.25;;;7.10;99.90;;;;;;5028561;28;20034;-79
2021/03/13 02:04:44;;;;;;;4.55;1.20;;;;;;;;;;5033177;28;20045;-79
2021/03/13 02:07:28;;;;;;;4.22;1.60;;;;;;;;;;5025427;28;20433;-79
2021/03/13 02:10:06;;;;;;;5.68;1.25;;;7.30;99.90;;;;;;5043036;28;20041;-80
2021/03/13 02:12:42;;;;;;;4.93;1.63;;;;;;;;;;5035316;28;20040;-80
2021/03/13 02:15:30;;;;;;;4.38;1.02;;;7.30;99.90;;;;;;5030725;28;20234;-80
2021/03/13 02:18:23;;;;;;;3.55;1.35;;;7.30;99.90;;;;;;5026967;28;20531;-80
2021/03/13 02:21:12;;;;;;;2.33;0.80;;;7.30;99.90;;;;;;5028147;28;20105;-80
2021/03/13 02:24:16;;;;;;;4.57;1.10;;;7.40;99.90;;;;;;5029451;28;20048;-78
2021/03/13 02:26:53;;;;;;;1.70;0.90;;;7.40;99.90;;;;;;5026326;28;20049;-80
2021/03/13 02:29:44;;;;;;;3.47;1.17;;;7.50;99.90;;;;;;5036889;28;20045;-78
2021/03/13 02:32:17;;;;;;;3.78;0.90;;;7.40;99.90;;;;;;5028019;28;20064;-78
2021/03/13 02:34:45;;;;;;;3.70;0.93;;;7.40;99.90;;;;;;5045654;28;20418;-79
2021/03/13 02:37:20;;;;;;;2.42;0.77;;;7.30;99.90;;;;;;5032309;28;20394;-79
2021/03/13 02:39:47;;;;;;;1.77;0.60;;;7.30;99.90;;;;;;5031316;28;20079;-80
2021/03/13 02:42:14;;;;;;;6.85;1.30;;;9.00;99.90;;;;;;5022971;28;20617;-78
2021/03/13 02:44:40;;;;;;;4.05;1.08;;;;;;;;;;5030681;28;20782;-77
2021/03/13 02:47:07;;;;;;;4.32;0.80;;;7.50;99.90;;;;;;5030779;28;20100;-78
2021/03/13 02:49:35;;;;;;;5.05;1.23;;;7.60;99.90;;;;;;5013688;28;20469;-79
2021/03/13 02:52:02;;;;;;;3.20;1.00;;;;;;;;;;5024162;28;20042;-77
2021/03/13 02:54:30;;;;;;;4.60;1.00;;;7.60;99.90;;;;;;5022612;28;20213;-83
2021/03/13 02:56:57;;;;;;;6.90;1.10;;;7.60;99.90;;;;;;5025843;28;20064;-80
2021/03/13 02:59:24;;;;;;;5.15;1.38;;;;;;;;;;5025316;28;20151;-79
2021/03/13 03:01:54;;;;;;;4.18;1.00;;;7.50;99.90;;;;;;5024084;28;20041;-77
2021/03/13 03:04:21;;;;;;;4.85;1.25;;;10.60;99.90;;;;;;5026821;28;20045;-79
2021/03/13 03:06:51;;;;;;;5.15;1.42;;;7.50;99.90;;;;;;5022081;28;20045;-79
2021/03/13 03:09:17;;;;;;;5.63;1.80;;;7.50;99.90;;;;;;5031143;28;20097;-79
2021/03/13 03:11:45;;;;;;;7.30;1.52;;;7.50;99.90;;;;;;5027889;28;20037;-77
2021/03/13 03:14:12;;;;;;;8.52;1.70;;;7.50;99.90;;;;;;5027967;28;20041;-78
2021/03/13 03:16:40;;;;;;;5.05;1.50;;;7.60;99.90;;;;;;5027072;28;20053;-79
2021/03/13 03:19:08;;;;;;;7.80;1.70;;;7.60;99.90;;;;;;5021909;28;20587;-81
2021/03/13 03:21:36;;;;;;;8.18;2.38;;;7.60;99.90;;;;;;5031579;28;20248;-80
2021/03/13 03:24:02;;;;;;;8.40;2.60;;;7.70;99.90;;;;;;5031437;28;20513;-81
2021/03/13 03:26:28;;;;;;;10.35;2.97;;;;;;;;;;5025562;28;20084;-80
2021/03/13 03:28:54;;;;;;;7.60;3.17;;;7.60;99.90;;;;;;5020468;28;20074;-79
2021/03/13 03:31:20;;;;;;;11.43;3.70;;;;;;;;;;5023118;28;20117;-77
2021/03/13 03:33:48;;;;;;;10.18;3.90;;;7.80;99.90;;;;;;5042484;28;20593;-77
2021/03/13 03:36:15;;;;;;;8.98;3.80;;;;;;;;;;5032970;28;20549;-79
2021/03/13 03:38:41;;;;;;;11.32;3.72;;;7.70;99.90;;;;;;5032272;28;20069;-81
2021/03/13 03:41:06;;;;;;;8.80;3.55;;;7.60;99.90;;;;;;5031778;28;20091;-79
2021/03/13 03:43:43;;;;;;;7.85;3.08;;;7.70;99.90;;;;;;5013357;28;20382;-79
2021/03/13 03:46:10;;;;;;;8.95;3.08;;;7.60;99.90;;;;;;5025845;28;20111;-78
2021/03/13 03:48:37;;;;;;;8.82;2.28;;;7.60;99.90;;;;;;5031370;28;20049;-80
2021/03/13 03:51:12;;;;;;;7.85;2.58;;;7.60;99.90;;;;;;5026161;28;20038;-80
2021/03/13 03:53:40;;;;;;;5.20;1.70;;;7.60;99.90;;;;;;5045001;28;20495;-80
2021/03/13 03:56:08;;;;;;;9.10;2.20;;;7.60;99.90;;;;;;5029485;28;20029;-79
2021/03/13 03:58:41;;;;;;;7.82;1.92;;;7.60;99.90;;;;;;5044021;28;20056;-83
2021/03/13 04:01:08;;;;;;;6.22;1.75;;;;;;;;;;5026887;28;20122;-79
2021/03/13 04:03:37;;;;;;;8.95;1.58;;;7.60;99.90;;;;;;5027347;28;21040;-78
2021/03/13 04:06:03;;;;;;;7.47;1.95;;;;;;;;;;5028706;28;20030;-80
2021/03/13 04:08:30;;;;;;;8.75;1.65;;;7.60;99.90;;;;;;5026383;28;20482;-78
2021/03/13 04:10:57;;;;;;;10.93;2.17;;;7.60;99.90;;;;;;5029336;28;20053;-79
2021/03/13 04:13:23;;;;;;;9.57;2.05;;;;;;;;;;5026635;28;20038;-79
2021/03/13 04:15:49;;;;;;;6.05;1.50;;;7.50;99.90;;;;;;5041268;28;20124;-80
2021/03/13 04:18:17;;;;;;;6.75;1.58;;;7.60;99.90;;;;;;5027079;28;20033;-79
2021/03/13 04:20:46;;;;;;;5.60;1.20;;;7.60;99.90;;;;;;5025731;28;20124;-78
2021/03/13 04:23:13;;;;;;;4.78;1.35;;;;;;;;;;5025775;28;20177;-79
2021/03/13 04:25:39;;;;;;;3.58;1.17;;;7.70;99.90;;;;;;5027053;28;20732;-76
2021/03/13 04:28:05;;;;;;;7.95;1.85;;;;;;;;;;5023505;28;20045;-79
2021/03/13 04:30:31;;;;;;;4.47;1.67;;;;;;;;;;5030275;28;20025;-79
2021/03/13 04:32:58;;;;;;;8.45;1.52;;;7.70;99.90;;;;;;5035172;28;20037;-81
2021/03/13 04:35:26;;;;;;;7.05;1.80;;;7.60;99.90;;;;;;5031848;28;20056;-80
2021/03/13 04:37:54;;;;;;;7.82;1.50;;;7.60;99.90;;;;;;5035646;28;20029;-79
2021/03/13 04:40:20;;;;;;;7.57;1.70;;;7.60;99.90;;;;;;5038169;28;20105;-80
2021/03/13 04:42:47;;;;;;;6.03;1.38;;;7.60;99.90;;;;;;5029440;28;20396;-78
2021/03/13 04:45:15;;;;;;;10.13;1.77;;;7.60;99.90;;;;;;5034095;28;20434;-79
2021/03/13 04:47:45;;;;;;;11.57;1.63;;;7.70;99.90;;;;;;5027223;28;20045;-79
2021/03/13 04:50:14;;;;;;;5.75;1.27;;;7.70;99.90;;;;;;5027196;28;20052;-79
2021/03/13 04:52:40;;;;;;;10.20;1.60;;;;;;;;;;5030659;28;20439;-79
2021/03/13 04:55:06;;;;;;;4.68;1.27;;;7.70;99.90;;;;;;5016113;28;20038;-79
2021/03/13 04:57:33;;;;;;;9.07;1.55;;;;;;;;;;5030016;28;20049;-80
2021/03/13 04:59:58;;;;;;;8.18;1.60;;;7.60;99.90;;;;;;5031612;28;20045;-79
2021/03/13 05:02:24;;;;;;;6.55;1.20;;;7.60;99.90;;;;;;5012840;28;20049;-79
2021/03/13 05:04:50;;;;;;;5.63;1.10;;;7.50;99.90;;;;;;5033117;28;20045;-79
2021/03/13 05:07:15;;;;;;;4.93;1.20;;;7.50;99.90;;;;;;5030385;28;20041;-79
2021/03/13 05:09:42;;;;;;;6.78;1.65;;;;;;;;;;5026477;28;20583;-79
2021/03/13 05:12:08;;;;;;;10.23;1.65;;;;;;;;;;5030351;28;20040;-77
2021/03/13 05:14:34;;;;;;;5.95;1.15;;;;;;;;;;5035090;28;20106;-79
2021/03/13 05:17:01;;;;;;;7.05;1.33;;;7.50;99.90;;;;;;5034092;28;20791;-79
2021/03/13 05:19:27;;;;;;;6.75;1.10;;;;;;;;;;5030308;28;20076;-79
2021/03/13 05:21:54;;;;;;;6.55;1.75;;;7.60;99.90;;;;;;5053606;28;20045;-78
2021/03/13 05:24:19;;;;;;;6.88;1.50;;;7.60;99.90;;;;;;5016569;28;20052;-79
2021/03/13 05:26:45;;;;;;;7.72;1.50;;;10.50;99.90;;;;;;5024485;28;20693;-79
2021/03/13 05:29:11;;;;;;;5.43;1.50;;;;;;;;;;5013126;28;20053;-78
2021/03/13 05:31:37;;;;;;;6.07;1.40;;;;;;;;;;5005816;28;20426;-77
2021/03/13 05:34:03;;;;;;;3.72;1.65;;;7.50;99.90;;;;;;5026318;28;20041;-80
2021/03/13 05:36:29;;;;;;;5.20;1.30;;;;;;;;;;5036018;28;20475;-81
2021/03/13 05:38:55;;;;;;;2.35;1.40;;;7.50;99.90;;;;;;5035083;28;20114;-79
2021/03/13 05:41:21;;;;;;;7.35;1.23;;;;;;;;;;5015492;28;20065;-80
2021/03/13 05:43:50;;;;;;;3.38;1.17;;;7.40;99.90;;;;;;5037536;28;20116;-77
2021/03/13 05:46:18;;;;;;;21.88;2.42;;;7.40;99.90;;;;;;5025872;28;20453;-79
2021/03/13 05:48:44;;;;;;;4.47;1.17;;;7.40;99.90;;;;;;5043880;28;20032;-79
2021/03/13 05:51:12;;;;;;;6.55;1.42;;;7.40;99.90;;;;;;5033756;28;20045;-78
2021/03/13 05:53:40;;;;;;;4.85;1.25;;;7.30;99.90;;;;;;5036541;28;20422;-78
2021/03/13 05:56:08;;;;;;;4.82;0.98;;;;;;;;;;5038416;28;20150;-78
2021/03/13 05:58:37;;;;;;;4.10;1.20;;;7.40;99.90;;;;;;5035321;28;20402;-78
2021/03/13 06:01:04;;;;;;;5.63;1.20;;;7.30;99.90;;;;;;5035459;28;20029;-78
2021/03/13 06:03:32;;;;;;;7.90;1.52;;;7.40;99.90;;;;;;5037458;28;20037;-79
2021/03/13 06:05:59;;;;;;;4.25;1.13;;;7.30;99.90;;;;;;5030046;28;20072;-78
2021/03/13 06:08:25;;;;;;;4.15;1.08;;;;;;;;;;5030633;28;20042;-78
2021/03/13 06:10:55;;;;;;;5.45;1.63;;;7.40;99.90;;;;;;5020325;28;20434;-77
2021/03/13 06:13:22;;;;;;;3.55;1.23;;;;;;;;;;5032913;28;20110;-79
2021/03/13 06:15:48;;;;;;;7.55;1.75;;;7.40;99.90;;;;;;5021306;28;20110;-79
2021/03/13 06:18:13;;;;;;;2.80;1.13;;;7.50;99.90;;;;;;5037427;28;20033;-81
2021/03/13 06:20:40;;;;;;;3.78;1.05;;;;;;;;;;5043643;28;20422;-78
2021/03/13 06:23:13;;;;;;;4.50;1.30;;;7.60;99.90;;;;;;5029945;28;20399;-78
2021/03/13 06:25:39;;;;;;;5.00;1.30;;;7.60;99.90;;;;;;5040106;28;20055;-80
2021/03/13 06:28:13;;;;;;;5.45;1.27;;;9.10;99.90;;;;;;5035704;28;20511;-79
2021/03/13 06:30:47;;;;;;;7.10;1.30;;;7.60;99.90;;;;;;5037303;28;20129;-80
2021/03/13 06:33:22;;;;;;;2.50;1.10;;;7.70;99.90;;;;;;5034776;28;20037;-79
2021/03/13 06:35:49;;;;;;;4.82;1.17;;;7.60;99.90;;;;;;5036606;28;20083;-77
2021/03/13 06:38:18;;;;;;;3.30;1.00;;;10.10;99.90;;;;;;5039924;28;20041;-79
2021/03/13 06:40:45;;;;;;;5.20;1.10;;;7.60;99.90;;;;;;5037819;28;20052;-79
2021/03/13 06:43:39;;;;;;;4.03;1.05;;;7.70;99.90;;;;;;5034514;28;20029;-78
2021/03/13 06:46:12;;;;;;;4.40;1.30;;;7.70;99.90;;;;;;5042805;28;20125;-79
2021/03/13 06:48:51;;;;;;;8.70;1.75;;;7.70;99.90;;;;;;5033154;28;20056;-79
2021/03/13 06:51:22;;;;;;;6.78;1.25;;;7.80;99.90;;;;;;5031079;28;20025;-78
2021/03/13 06:54:10;;;;;;;5.63;1.50;;;7.90;99.90;;;;;;5038733;28;20052;-79
2021/03/13 06:56:43;;;;;;;4.97;1.42;;;7.90;99.90;;;;;;5036081;28;20048;-79
2021/03/13 06:59:17;;;;;;;3.53;1.27;;;7.80;99.90;;;;;;5030866;28;20132;-78
2021/03/13 07:01:43;;;;;;;2.95;1.45;;;8.00;99.90;;;;;;5029769;28;20064;-77
2021/03/13 07:04:09;;;;;;;7.55;1.30;;;8.00;99.90;;;;;;5029713;28;20137;-79
2021/03/13 07:06:46;;;;;;;7.45;1.27;;;8.00;99.90;;;;;;5031549;28;20049;-79
2021/03/13 07:09:12;;;;;;;3.70;1.20;;;8.10;99.90;;;;;;5028303;28;20099;-81
2021/03/13 07:11:38;;;;;;;6.35;1.42;;;8.10;99.90;;;;;;5014756;28;20050;-79
2021/03/13 07:14:05;;;;;;;5.50;1.70;;;8.10;99.90;;;;;;5031101;28;20544;-78
2021/03/13 07:16:40;;;;;;;4.45;1.35;;;8.10;99.90;;;;;;5029434;28;20033;-77
2021/03/13 07:19:08;;;;;;;10.30;1.50;;;8.10;99.90;;;;;;5036188;28;20097;-81
2021/03/13 07:21:36;;;;;;;7.35;1.20;;;8.00;99.90;;;;;;5042876;28;20061;-81
2021/03/13 07:24:13;;;;;;;5.18;1.15;;;8.10;99.90;;;;;;5024150;28;20053;-79
2021/03/13 07:26:46;;;;;;;3.05;0.90;;;8.10;99.90;;;;;;5023155;28;20549;-79
2021/03/13 07:29:15;;;;;;;7.57;1.20;;;8.10;99.90;;;;;;5025733;28;20266;-78
2021/03/13 07:31:45;;;;;;;4.70;1.20;;;8.10;99.90;;;;;;5024909;28;20076;-82
2021/03/13 07:34:18;;;;;;;5.25;1.13;;;10.20;99.90;;;;;;5029879;28;20073;-81
2021/03/13 07:36:50;;;;;;;5.03;1.08;;;8.20;99.90;;;;;;5035405;28;20034;-78
2021/03/13 07:39:17;;;;;;;2.60;0.68;;;8.10;99.90;;;;;;5029889;28;20049;-81
2021/03/13 07:42:11;;;;;;;3.65;1.00;;;8.10;99.90;;;;;;5037038;28;20526;-78
2021/03/13 07:44:37;;;;;;;2.33;0.75;;;;;;;;;;5046655;28;20041;-78
2021/03/13 07:47:03;;;;;;;4.40;0.90;;;;;;;;;;5031212;28;20037;-80
2021/03/13 07:49:33;;;;;;;5.88;1.30;;;8.20;99.90;;;;;;5033616;28;20049;-78
2021/03/13 07:51:59;;;;;;;6.47;0.82;;;8.10;99.90;;;;;;5043878;28;20988;-81
2021/03/13 07:54:29;;;;;;;6.68;1.30;;;8.00;99.90;;;;;;5034394;28;20026;-80
2021/03/13 07:56:55;;;;;;;2.13;0.63;;;8.00;99.90;;;;;;5025631;28;20048;-79
2021/03/13 07:59:50;;;;;;;3.83;0.95;;;8.20;99.90;;;;;;5022392;28;20046;-79
2021/03/13 08:02:31;;;;;;;4.53;1.27;;;8.20;99.90;;;;;;5024829;28;20490;-78
2021/03/13 08:04:58;;;;;;;5.75;1.25;;;8.10;99.90;;;;;;5025422;28;20040;-79
2021/03/13 08:07:24;;;;;;;5.30;1.15;;;;;;;;;;5022964;28;21307;-79
2021/03/13 08:09:50;;;;;;;6.97;1.08;;;8.00;99.90;;;;;;5015185;28;20045;-79
2021/03/13 08:12:42;;;;;;;3.75;0.90;;;8.00;99.90;;;;;;5017469;28;20049;-83
2021/03/13 08:15:31;;;;;;;6.03;2.20;;;8.20;99.90;;;;;;5021506;28;20148;-82
2021/03/13 08:17:57;;;;;;;6.20;1.20;;;;;;;;;;5021668;28;20495;-79
2021/03/13 08:20:33;;;;;;;5.43;1.35;;;8.20;99.90;;;;;;5020297;28;20045;-77
2021/03/13 08:23:11;;;;;;;6.30;1.35;;;8.20;99.90;;;;;;5021402;28;20029;-78
2021/03/13 08:26:00;;;;;;;5.63;1.50;;;8.20;99.90;;;;;;5028955;28;20107;-80
2021/03/13 08:28:47;;;;;;;7.30;2.10;;;8.20;99.90;;;;;;5024729;28;20041;-79
2021/03/13 08:31:22;;;;;;;6.30;1.38;;;8.30;99.90;;;;;;5027250;28;20032;-79
2021/03/13 08:33:48;;;;;;;2.83;0.85;;;8.20;99.90;;;;;;5024070;28;20025;-77
2021/03/13 08:36:23;;;;;;;3.92;0.93;;;8.20;99.90;;;;;;5027787;28;20038;-78
2021/03/13 08:39:11;;;;;;;4.88;1.17;;;8.20;99.90;;;;;;5030599;28;20128;-78
2021/03/13 08:41:43;;;;;;;3.85;1.10;;;8.10;99.90;;;;;;5022421;28;20025;-80
2021/03/13 08:44:12;;;;;;;2.42;0.90;;;8.20;99.90;;;;;;5040753;28;20047;-78
2021/03/13 08:46:56;;;;;;;2.20;0.80;;;8.20;99.90;;;;;;5042636;28;20037;-79
2021/03/13 08:49:25;;;;;;;2.72;1.00;;;8.20;99.90;;;;;;5025839;28;20052;-78
2021/03/13 08:52:09;;;;;;;5.80;1.08;;;8.20;99.90;;;;;;5023368;28;20119;-77
2021/03/13 08:54:41;;;;;;;3.10;1.10;;;8.20;99.90;;;;;;5025872;28;20025;-77
2021/03/13 08:57:12;;;;;;;2.85;1.10;;;8.20;99.90;;;;;;5031380;28;20021;-77
2021/03/13 08:59:41;;;;;;;4.13;1.35;;;8.20;99.90;;;;;;5030618;28;20033;-79
2021/03/13 09:02:17;;;;;;;3.72;1.05;;;8.30;99.90;;;;;;5025922;28;20044;-79
2021/03/13 09:04:50;;;;;;;3.03;0.75;;;8.30;99.90;;;;;;5036906;28;20056;-79
2021/03/13 09:07:17;;;;;;;1.75;0.80;;;8.30;99.90;;;;;;5024263;28;20025;-79
2021/03/13 09:09:43;;;;;;;3.25;1.10;;;8.30;99.90;;;;;;5005647;28;20060;-80
2021/03/13 09:12:11;;;;;;;2.45;0.50;;;8.20;99.90;;;;;;5028725;28;20029;-79
2021/03/13 09:14:39;;;;;;;2.47;0.73;;;8.30;99.90;;;;;;5010174;28;20045;-78
2021/03/13 09:17:16;;;;;;;5.97;1.02;;;8.30;99.90;;;;;;5040640;28;20124;-80
2021/03/13 09:19:44;;;;;;;4.63;1.05;;;8.30;99.90;;;;;;5023820;28;20042;-78
2021/03/13 09:22:16;;;;;;;4.85;0.85;;;8.40;99.90;;;;;;5025325;28;20048;-78
2021/03/13 09:24:42;;;;;;;4.13;1.10;;;;;;;;;;5033506;28;20125;-80
2021/03/13 09:27:09;;;;;;;2.33;1.17;;;8.30;99.90;;;;;;5032595;28;20042;-80
2021/03/13 09:29:41;;;;;;;2.10;0.90;;;9.20;99.90;;;;;;5026915;28;20037;-79
2021/03/13 09:32:12;;;;;;;2.97;1.00;;;8.30;99.90;;;;;;5037679;28;21140;-77
2021/03/13 09:34:42;;;;;;;4.38;1.10;;;8.20;99.90;;;;;;5018097;28;20068;-79
2021/03/13 09:37:15;;;;;;;4.85;0.95;;;8.20;99.90;;;;;;5021801;28;20030;-79
2021/03/13 09:39:45;;;;;;;4.78;1.08;;;8.20;99.90;;;;;;5017698;28;20068;-80
2021/03/13 09:42:31;;;;;;;2.53;0.80;;;8.20;99.90;;;;;;5016800;28;20112;-79
2021/03/13 09:45:14;;;;;;;2.28;1.15;;;8.30;99.90;;;;;;5015393;28;20107;-79
2021/03/13 09:47:46;;;;;;;1.67;0.85;;;8.20;99.90;;;;;;5020419;28;20668;-78
2021/03/13 09:50:16;;;;;;;4.50;1.00;;;8.20;99.90;;;;;;5001516;28;20120;-77
2021/03/13 09:52:47;;;;;;;2.20;1.02;;;8.10;99.90;;;;;;5026587;28;20046;-77
2021/03/13 09:55:14;;;;;;;;;;;8.20;99.90;;;;;;5027295;28;20034;-78
2021/03/13 09:57:46;;;;;;;1.20;0.70;;;8.20;99.90;;;;;;5026435;28;19909;-77
2021/03/13 10:00:23;;;;;;;2.00;0.85;;;9.80;99.90;;;;;;5022379;28;20046;-77
2021/03/13 10:02:50;;;;;;;5.32;1.08;;;8.10;99.90;;;;;;5018271;28;20069;-78
2021/03/13 10:05:18;;;;;;;3.65;1.08;;;8.10;99.90;;;;;;5021909;28;20052;-79
2021/03/13 10:07:46;;;;;;;2.75;1.08;;;8.10;99.90;;;;;;5026825;28;20026;-78
2021/03/13 10:10:20;;;;;;;2.38;0.60;;;8.10;99.90;;;;;;5025879;28;20041;-80
2021/03/13 10:13:00;;;;;;;3.55;0.90;;;8.30;99.90;;;;;;5024436;28;20036;-79
2021/03/13 10:15:31;;;;;;;2.58;0.47;;;8.20;99.90;;;;;;5025188;28;20038;-78
2021/03/13 10:18:00;;;;;;;0.50;0.38;;;8.20;99.90;;;;;;5022132;28;20041;-78
2021/03/13 10:20:28;;;;;;;1.03;0.60;;;8.20;99.90;;;;;;5024310;28;20045;-77
2021/03/13 10:22:54;;;;;;;1.58;0.50;;;7.70;99.90;;;;;;5026940;28;20041;-78
2021/03/13 10:25:21;;;;;;;2.20;1.00;;;;;;;;;;5024269;28;20052;-78
2021/03/13 10:27:47;;;;;;;4.45;1.02;;;;;;;;;;5025745;28;20139;-77
2021/03/13 10:30:13;;;;;;;2.72;0.80;;;6.20;99.90;;;;;;5041051;28;20053;-78
2021/03/13 10:32:46;;;;;;;1.88;0.70;;;5.90;99.90;;;;;;5023858;28;20021;-78
2021/03/13 10:35:12;;;;;;;1.95;0.60;;;;;;;;;;5028898;28;21383;-79
2021/03/13 10:37:43;;;;;;;2.08;0.68;;;5.50;99.90;;;;;;5025230;28;20041;-79
2021/03/13 10:40:12;;;;;;;3.58;0.60;;;5.50;99.90;;;;;;5043063;28;20076;-76
2021/03/13 10:42:38;;;;;;;2.22;0.77;;;;;;;;;;5025843;28;20033;-78
2021/03/13 10:45:12;;;;;;;1.65;0.60;;;5.40;99.90;;;;;;5043675;28;20052;-81
2021/03/13 10:47:38;;;;;;;2.45;0.80;;;;;;;;;;5030709;28;20084;-77
2021/03/13 10:50:05;;;;;;;2.63;0.82;;;5.50;99.90;;;;;;5022078;28;20053;-77
2021/03/13 10:52:31;;;;;;;3.92;0.98;;;5.50;99.90;;;;;;5024054;28;20040;-80
2021/03/13 10:54:57;;;;;;;2.15;0.50;;;;;;;;;;5022039;28;20034;-79
2021/03/13 10:57:23;;;;;;;2.83;0.40;;;;;;;;;;5013096;28;20037;-79
2021/03/13 10:59:49;;;;;;;1.27;0.60;;;;;;;;;;5026141;28;20042;-77
2021/03/13 11:02:14;;;;;;;0.63;0.50;;;5.70;99.90;;;;;;5019579;28;20067;-80
2021/03/13 11:04:43;;;;;;;1.52;0.60;;;5.70;99.90;;;;;;5023479;28;20053;-78
2021/03/13 11:07:09;;;;;;;1.65;0.80;;;5.80;99.90;;;;;;5022953;28;20091;-77
2021/03/13 11:09:35;;;;;;;1.83;0.80;;;;;;;;;;5020655;28;20137;-79
2021/03/13 11:12:01;;;;;;;1.83;0.77;;;6.00;99.90;;;;;;5017560;28;20049;-79
2021/03/13 11:14:27;;;;;;;8.02;3.00;;;6.10;99.90;;;;;;5020427;28;20041;-78
2021/03/13 11:16:53;;;;;;;1.98;0.93;;;6.10;99.90;;;;;;5021063;28;20053;-78
2021/03/13 11:19:19;;;;;;;4.03;1.00;;;;;;;;;;5019740;28;20054;-78
2021/03/13 11:21:45;;;;;;;1.50;0.77;;;6.30;99.90;;;;;;5023265;28;20063;-77
2021/03/13 11:24:11;;;;;;;2.78;0.90;;;7.10;99.90;;;;;;5018933;28;20048;-78
2021/03/13 11:26:37;;;;;;;2.30;0.77;;;;;;;;;;5019787;28;20038;-79
2021/03/13 11:29:05;;;;;;;3.05;1.00;;;6.70;99.90;;;;;;5021975;28;20120;-78
2021/03/13 11:31:32;;;;;;;2.30;1.00;;;6.90;99.90;;;;;;5029821;28;20041;-78
2021/03/13 11:33:58;;;;;;;8.13;2.92;;;6.80;99.90;;;;;;5022399;28;20030;-81
2021/03/13 11:36:24;;;;;;;2.88;0.93;;;;;;;;;;5020525;28;20101;-77
2021/03/13 11:38:49;;;;;;;3.35;1.20;;;7.00;99.90;;;;;;5019260;28;20953;-82
2021/03/13 11:41:16;;;;;;;5.28;1.30;;;;;;;;;;5019748;28;20045;-83
2021/03/13 11:43:43;;;;;;;2.83;1.17;;;;;;;;;;5033024;28;20517;-79
2021/03/13 11:46:10;;;;;;;10.05;2.58;;;7.10;99.90;;;;;;5025271;28;20032;-77
2021/03/13 11:48:36;;;;;;;14.00;4.53;;;;;;;;;;5034435;28;20041;-78
2021/03/13 11:51:02;;;;;;;5.28;2.15;;;;;;;;;;5019767;28;20034;-78
2021/03/13 11:53:28;;;;;;;5.20;1.23;;;;;;;;;;5007616;28;20045;-79
2021/03/13 11:55:54;;;;;;;5.43;1.10;;;7.60;99.90;;;;;;5022040;28;20033;-78
2021/03/13 11:58:20;;;;;;;4.47;1.80;;;;;;;;;;5021242;28;20057;-78
2021/03/13 12:00:46;;;;;;;4.78;1.33;;;;;;;;;;5027346;28;20034;-78
2021/03/13 12:03:14;;;;;;;3.72;1.33;;;7.50;99.90;;;;;;5033080;28;20048;-80
2021/03/13 12:05:40;;;;;;;2.20;0.70;;;7.60;99.90;;;;;;5030608;28;20048;-79
2021/03/13 12:08:06;;;;;;;3.65;1.00;;;;;;;;;;5011512;28;20033;-79
2021/03/13 12:10:32;;;;;;;2.70;0.82;;;7.50;99.90;;;;;;5035104;28;20045;-78
2021/03/13 12:12:57;;;;;;;2.75;0.88;;;7.60;99.90;;;;;;5005736;28;20513;-78
2021/03/13 12:15:24;;;;;;;4.95;0.80;;;7.50;99.90;;;;;;5032113;28;20064;-79
2021/03/13 12:17:50;;;;;;;3.30;0.85;;;7.60;99.90;;;;;;5021058;28;20064;-80
2021/03/13 12:20:16;;;;;;;6.22;1.58;;;;;;;;;;5039372;28;20033;-80
2021/03/13 12:22:42;;;;;;;5.60;1.83;;;7.40;99.90;;;;;;5020604;28;20049;-80
2021/03/13 12:25:08;;;;;;;3.50;1.20;;;7.40;99.90;;;;;;5025467;28;20912;-80
2021/03/13 12:27:40;;;;;;;9.13;2.15;;;;;;;;;;5023790;28;20175;-80
2021/03/13 12:30:12;;;;;;;5.15;1.15;;;7.80;99.90;;;;;;5024678;28;20038;-83
2021/03/13 12:32:38;;;;;;;6.32;1.48;;;8.10;99.90;;;;;;5024237;28;20076;-79
2021/03/13 12:35:07;;;;;;;6.80;2.40;;;8.10;99.90;;;;;;5040034;28;20128;-79
2021/03/13 12:37:32;;;;;;;6.32;1.40;;;8.30;99.90;;;;;;5026420;28;20519;-84
2021/03/13 12:39:59;;;;;;;6.22;1.58;;;;;;;;;;5032689;28;20056;-81
2021/03/13 12:42:25;;;;;;;5.53;1.20;;;;;;;;;;5026670;28;20033;-80
2021/03/13 12:44:52;;;;;;;4.47;1.25;;;8.40;99.90;;;;;;5025523;28;20063;-77
2021/03/13 12:47:18;;;;;;;7.10;1.50;;;8.40;99.90;;;;;;5022981;28;20049;-77
2021/03/13 12:49:44;;;;;;;4.80;1.63;;;;;;;;;;5022070;28;20033;-78
2021/03/13 12:52:09;;;;;;;8.75;2.45;;;8.50;99.90;;;;;;5036556;28;20041;-80
2021/03/13 12:54:35;;;;;;;7.97;2.30;;;;;;;;;;5026329;28;20636;-82
2021/03/13 12:57:01;;;;;;;10.32;1.73;;;8.50;99.90;;;;;;5026193;28;20094;-78
2021/03/13 12:59:26;;;;;;;7.18;1.25;;;10.40;99.90;;;;;;5026931;28;20168;-78
2021/03/13 13:01:53;;;;;;;8.32;1.70;;;;;;;;;;5007668;28;20317;-83
2021/03/13 13:04:18;;;;;;;5.82;1.38;;;8.40;99.90;;;;;;5025690;28;20050;-79
2021/03/13 13:06:44;;;;;;;4.60;1.23;;;8.20;99.90;;;;;;5030226;28;20052;-78
2021/03/13 13:09:09;;;;;;;5.93;2.00;;;10.30;99.90;;;;;;5006099;28;20137;-76
2021/03/13 13:11:35;;;;;;;8.23;2.40;;;8.30;99.90;;;;;;5024026;28;20038;-79
2021/03/13 13:14:01;;;;;;;7.80;2.30;;;8.20;99.90;;;;;;5028901;28;20033;-76
2021/03/13 13:16:27;;;;;;;3.40;0.88;;;8.20;99.90;;;;;;5020989;28;20132;-79
2021/03/13 13:18:52;;;;;;;3.25;0.98;;;11.00;99.90;;;;;;5020074;28;20048;-79
2021/03/13 13:21:18;;;;;;;1.17;0.60;;;8.00;99.90;;;;;;5020425;28;20034;-77
2021/03/13 13:23:44;;;;;;;3.15;0.90;;;7.70;99.90;;;;;;5021243;28;20766;-78
2021/03/13 13:26:10;;;;;;;4.70;0.80;;;7.60;99.90;;;;;;5020743;28;20052;-78
2021/03/13 13:28:36;;;;;;;3.25;0.80;;;;;;;;;;5005853;28;20539;-77
2021/03/13 13:31:02;;;;;;;7.45;2.08;;;7.20;99.90;;;;;;5030414;28;20044;-80
2021/03/13 13:33:28;;;;;;;3.38;0.80;;;7.10;99.90;;;;;;5042843;28;20034;-77